sensor_id;sensor_type;location;lat;lon;timestamp;pressure;altitude;pressure_sealevel;temperature;humidity
6395;BME280;3230;42.588;23.358;2023-01-27T00:00:24;90069.94;;;-0.59;100.00
6395;BME280;3230;42.588;23.358;2023-01-27T00:02:49;90062.69;;;-0.74;100.00
6395;BME280;3230;42.588;23.358;2023-01-27T00:05:15;90066.56;;;-0.60;100.00
6395;BME280;3230;42.588;23.358;2023-01-27T00:07:41;90063.16;;;-0.77;100.00
6395;BME280;3230;42.588;23.358;2023-01-27T00:10:13;90058.69;;;-0.82;100.00
6395;BME280;3230;42.588;23.358;2023-01-27T00:12:40;90062.84;;;-0.52;100.00
6395;BME280;3230;42.588;23.358;2023-01-27T00:15:24;90055.34;;;-0.54;100.00
6395;BME280;3230;42.588;23.358;2023-01-27T00:17:49;90048.69;;;-0.67;100.00
6395;BME280;3230;42.588;23.358;2023-01-27T00:20:15;90045.56;;;-0.69;100.00
6395;BME280;3230;42.588;23.358;2023-01-27T00:22:59;90044.00;;;-0.70;100.00
6395;BME280;3230;42.588;23.358;2023-01-27T00:25:43;90049.13;;;-0.70;100.00
6395;BME280;3230;42.588;23.358;2023-01-27T00:28:15;90049.34;;;-0.59;100.00
6395;BME280;3230;42.588;23.358;2023-01-27T00:30:48;90047.13;;;-0.68;100.00
6395;BME280;3230;42.588;23.358;2023-01-27T00:33:13;90057.50;;;-0.34;100.00
6395;BME280;3230;42.588;23.358;2023-01-27T00:36:03;90044.53;;;-0.39;100.00
6395;BME280;3230;42.588;23.358;2023-01-27T00:38:31;90034.03;;;-0.66;100.00
6395;BME280;3230;42.588;23.358;2023-01-27T00:40:57;90039.22;;;-0.49;100.00
6395;BME280;3230;42.588;23.358;2023-01-27T00:43:41;90051.13;;;-0.60;100.00
6395;BME280;3230;42.588;23.358;2023-01-27T00:46:07;90047.16;;;-0.51;100.00
6395;BME280;3230;42.588;23.358;2023-01-27T00:48:33;90052.59;;;-0.64;100.00
6395;BME280;3230;42.588;23.358;2023-01-27T00:50:59;90056.31;;;-0.72;100.00
6395;BME280;3230;42.588;23.358;2023-01-27T00:53:25;90051.06;;;-0.77;100.00
6395;BME280;3230;42.588;23.358;2023-01-27T00:55:50;90062.75;;;-0.57;100.00
6395;BME280;3230;42.588;23.358;2023-01-27T00:58:16;90055.41;;;-0.66;100.00
6395;BME280;3230;42.588;23.358;2023-01-27T01:00:41;90052.63;;;-0.76;100.00
6395;BME280;3230;42.588;23.358;2023-01-27T01:03:07;90044.72;;;-0.57;100.00
6395;BME280;3230;42.588;23.358;2023-01-27T01:05:32;90048.38;;;-0.70;100.00
6395;BME280;3230;42.588;23.358;2023-01-27T01:07:58;90045.50;;;-0.86;100.00
6395;BME280;3230;42.588;23.358;2023-01-27T01:10:23;90045.56;;;-0.69;100.00
6395;BME280;3230;42.588;23.358;2023-01-27T01:12:49;90042.09;;;-0.74;100.00
6395;BME280;3230;42.588;23.358;2023-01-27T01:15:14;90038.34;;;-0.84;100.00
6395;BME280;3230;42.588;23.358;2023-01-27T01:17:40;90045.28;;;-0.84;100.00
6395;BME280;3230;42.588;23.358;2023-01-27T01:20:06;90035.16;;;-0.62;100.00
6395;BME280;3230;42.588;23.358;2023-01-27T01:22:32;90031.13;;;-0.70;100.00
6395;BME280;3230;42.588;23.358;2023-01-27T01:24:57;90025.47;;;-0.72;100.00
6395;BME280;3230;42.588;23.358;2023-01-27T01:27:23;90031.72;;;-0.79;100.00
6395;BME280;3230;42.588;23.358;2023-01-27T01:29:48;90037.94;;;-0.63;100.00
6395;BME280;3230;42.588;23.358;2023-01-27T01:32:14;90048.13;;;-0.69;100.00
6395;BME280;3230;42.588;23.358;2023-01-27T01:34:39;90050.03;;;-0.64;100.00
6395;BME280;3230;42.588;23.358;2023-01-27T01:37:04;90050.34;;;-0.60;100.00
6395;BME280;3230;42.588;23.358;2023-01-27T01:39:30;90056.22;;;-0.48;100.00
6395;BME280;3230;42.588;23.358;2023-01-27T01:41:56;90048.91;;;-0.22;100.00
6395;BME280;3230;42.588;23.358;2023-01-27T01:44:31;90056.44;;;-0.21;100.00
6395;BME280;3230;42.588;23.358;2023-01-27T01:46:57;90051.59;;;-0.17;100.00
6395;BME280;3230;42.588;23.358;2023-01-27T01:49:36;90042.94;;;-0.28;100.00
6395;BME280;3230;42.588;23.358;2023-01-27T01:52:10;90052.19;;;-0.27;100.00
6395;BME280;3230;42.588;23.358;2023-01-27T01:54:40;90038.72;;;-0.34;100.00
6395;BME280;3230;42.588;23.358;2023-01-27T01:57:11;90030.16;;;-0.52;100.00
6395;BME280;3230;42.588;23.358;2023-01-27T01:59:41;90019.56;;;-0.55;100.00
6395;BME280;3230;42.588;23.358;2023-01-27T02:02:10;90022.13;;;-0.55;100.00
6395;BME280;3230;42.588;23.358;2023-01-27T02:05:01;90006.00;;;-0.34;100.00
6395;BME280;3230;42.588;23.358;2023-01-27T02:10:06;89992.81;;;-0.37;100.00
6395;BME280;3230;42.588;23.358;2023-01-27T02:12:31;89977.22;;;-0.47;100.00
6395;BME280;3230;42.588;23.358;2023-01-27T02:14:57;89977.38;;;-0.37;100.00
6395;BME280;3230;42.588;23.358;2023-01-27T02:17:22;89961.78;;;-0.30;100.00
6395;BME280;3230;42.588;23.358;2023-01-27T02:22:50;89976.81;;;-0.39;100.00
6395;BME280;3230;42.588;23.358;2023-01-27T02:25:27;89970.75;;;-0.33;100.00
6395;BME280;3230;42.588;23.358;2023-01-27T02:27:53;89970.59;;;-0.26;100.00
6395;BME280;3230;42.588;23.358;2023-01-27T02:30:19;89972.16;;;-0.25;100.00
6395;BME280;3230;42.588;23.358;2023-01-27T02:32:44;89972.31;;;-0.15;100.00
6395;BME280;3230;42.588;23.358;2023-01-27T02:35:16;89974.03;;;-0.21;100.00
6395;BME280;3230;42.588;23.358;2023-01-27T02:37:45;89963.25;;;-0.52;100.00
6395;BME280;3230;42.588;23.358;2023-01-27T02:40:13;89977.00;;;-0.46;100.00
6395;BME280;3230;42.588;23.358;2023-01-27T02:42:39;89987.63;;;-0.25;100.00
6395;BME280;3230;42.588;23.358;2023-01-27T02:45:05;89991.44;;;-0.45;100.00
6395;BME280;3230;42.588;23.358;2023-01-27T02:47:30;89991.19;;;-0.89;100.00
6395;BME280;3230;42.588;23.358;2023-01-27T02:49:56;89995.31;;;-0.88;100.00
6395;BME280;3230;42.588;23.358;2023-01-27T02:52:21;90007.34;;;-0.77;100.00
6395;BME280;3230;42.588;23.358;2023-01-27T02:54:47;89988.97;;;-0.98;100.00
6395;BME280;3230;42.588;23.358;2023-01-27T02:57:12;89992.78;;;-1.00;100.00
6395;BME280;3230;42.588;23.358;2023-01-27T02:59:38;89990.81;;;-0.81;100.00
6395;BME280;3230;42.588;23.358;2023-01-27T03:02:03;89972.91;;;-1.05;100.00
6395;BME280;3230;42.588;23.358;2023-01-27T03:04:29;89982.91;;;-0.91;100.00
6395;BME280;3230;42.588;23.358;2023-01-27T03:06:54;89987.03;;;-0.90;100.00
6395;BME280;3230;42.588;23.358;2023-01-27T03:09:20;89979.72;;;-0.99;100.00
6395;BME280;3230;42.588;23.358;2023-01-27T03:11:45;89975.19;;;-0.91;100.00
6395;BME280;3230;42.588;23.358;2023-01-27T03:14:29;89967.75;;;-1.05;100.00
6395;BME280;3230;42.588;23.358;2023-01-27T03:17:13;89959.44;;;-1.12;100.00
6395;BME280;3230;42.588;23.358;2023-01-27T03:19:57;89952.59;;;-0.89;100.00
6395;BME280;3230;42.588;23.358;2023-01-27T03:22:22;89957.03;;;-1.02;100.00
6395;BME280;3230;42.588;23.358;2023-01-27T03:24:48;89944.81;;;-0.94;100.00
6395;BME280;3230;42.588;23.358;2023-01-27T03:27:13;89947.47;;;-0.89;100.00
6395;BME280;3230;42.588;23.358;2023-01-27T03:29:39;89937.81;;;-1.11;100.00
6395;BME280;3230;42.588;23.358;2023-01-27T03:32:20;89944.88;;;-1.18;100.00
6395;BME280;3230;42.588;23.358;2023-01-27T03:34:45;89938.69;;;-1.05;100.00
6395;BME280;3230;42.588;23.358;2023-01-27T03:37:11;89925.28;;;-1.07;100.00
6395;BME280;3230;42.588;23.358;2023-01-27T03:39:55;89904.88;;;-1.14;100.00
6395;BME280;3230;42.588;23.358;2023-01-27T03:42:38;89907.25;;;-0.95;100.00
6395;BME280;3230;42.588;23.358;2023-01-27T03:45:22;89904.13;;;-0.81;100.00
6395;BME280;3230;42.588;23.358;2023-01-27T03:48:06;89901.66;;;-1.21;100.00
6395;BME280;3230;42.588;23.358;2023-01-27T03:50:32;89903.16;;;-1.25;100.00
6395;BME280;3230;42.588;23.358;2023-01-27T03:53:08;89915.19;;;-1.26;100.00
6395;BME280;3230;42.588;23.358;2023-01-27T03:55:35;89916.56;;;-1.06;100.00
6395;BME280;3230;42.588;23.358;2023-01-27T03:58:01;89903.75;;;-1.18;100.00
6395;BME280;3230;42.588;23.358;2023-01-27T04:00:43;89930.78;;;-1.33;100.00
6395;BME280;3230;42.588;23.358;2023-01-27T04:03:08;89938.53;;;-1.56;100.00
6395;BME280;3230;42.588;23.358;2023-01-27T04:05:53;89947.34;;;-1.52;100.00
6395;BME280;3230;42.588;23.358;2023-01-27T04:08:36;89962.56;;;-1.22;100.00
6395;BME280;3230;42.588;23.358;2023-01-27T04:11:03;89981.59;;;-1.23;100.00
6395;BME280;3230;42.588;23.358;2023-01-27T04:13:47;89992.34;;;-1.38;100.00
6395;BME280;3230;42.588;23.358;2023-01-27T04:16:13;89988.44;;;-1.40;100.00
6395;BME280;3230;42.588;23.358;2023-01-27T04:18:38;89979.88;;;-1.46;100.00
6395;BME280;3230;42.588;23.358;2023-01-27T04:21:04;89970.03;;;-1.49;100.00
6395;BME280;3230;42.588;23.358;2023-01-27T04:23:29;89972.59;;;-1.49;100.00
6395;BME280;3230;42.588;23.358;2023-01-27T04:25:55;89989.00;;;-1.50;100.00
6395;BME280;3230;42.588;23.358;2023-01-27T04:28:21;89999.63;;;-1.58;100.00
6395;BME280;3230;42.588;23.358;2023-01-27T04:30:47;90001.44;;;-1.59;100.00
6395;BME280;3230;42.588;23.358;2023-01-27T04:33:13;89986.81;;;-1.70;100.00
6395;BME280;3230;42.588;23.358;2023-01-27T04:35:43;89980.88;;;-1.47;100.00
6395;BME280;3230;42.588;23.358;2023-01-27T04:38:11;89987.25;;;-1.50;100.00
6395;BME280;3230;42.588;23.358;2023-01-27T04:40:37;89994.13;;;-1.26;100.00
6395;BME280;3230;42.588;23.358;2023-01-27T04:43:03;89994.13;;;-1.26;100.00
6395;BME280;3230;42.588;23.358;2023-01-27T04:45:31;89992.94;;;-1.07;100.00
6395;BME280;3230;42.588;23.358;2023-01-27T04:47:56;90003.13;;;-1.12;100.00
6395;BME280;3230;42.588;23.358;2023-01-27T04:50:22;89993.09;;;-1.25;100.00
6395;BME280;3230;42.588;23.358;2023-01-27T04:52:47;89999.25;;;-1.26;100.00
6395;BME280;3230;42.588;23.358;2023-01-27T04:55:12;90003.91;;;-1.64;100.00
6395;BME280;3230;42.588;23.358;2023-01-27T04:57:38;90006.13;;;-1.68;100.00
6395;BME280;3230;42.588;23.358;2023-01-27T05:00:04;90021.22;;;-1.59;100.00
6395;BME280;3230;42.588;23.358;2023-01-27T05:02:30;90011.66;;;-1.35;100.00
6395;BME280;3230;42.588;23.358;2023-01-27T05:04:56;90006.00;;;-1.49;100.00
6395;BME280;3230;42.588;23.358;2023-01-27T05:07:22;90006.44;;;-1.52;100.00
6395;BME280;3230;42.588;23.358;2023-01-27T05:09:47;89991.03;;;-1.52;100.00
6395;BME280;3230;42.588;23.358;2023-01-27T05:12:13;89991.81;;;-1.52;100.00
6395;BME280;3230;42.588;23.358;2023-01-27T05:14:38;90005.41;;;-1.39;100.00
6395;BME280;3230;42.588;23.358;2023-01-27T05:17:04;90001.50;;;-1.42;100.00
6395;BME280;3230;42.588;23.358;2023-01-27T05:19:30;89999.63;;;-1.47;100.00
6395;BME280;3230;42.588;23.358;2023-01-27T05:21:55;89990.22;;;-1.41;100.00
6395;BME280;3230;42.588;23.358;2023-01-27T05:24:21;89995.72;;;-1.49;100.00
6395;BME280;3230;42.588;23.358;2023-01-27T05:26:46;89980.56;;;-1.63;100.00
6395;BME280;3230;42.588;23.358;2023-01-27T05:29:12;89978.22;;;-1.64;100.00
6395;BME280;3230;42.588;23.358;2023-01-27T05:31:37;89974.19;;;-1.72;100.00
6395;BME280;3230;42.588;23.358;2023-01-27T05:34:02;89975.53;;;-1.69;100.00
6395;BME280;3230;42.588;23.358;2023-01-27T05:36:28;89972.94;;;-1.69;100.00
6395;BME280;3230;42.588;23.358;2023-01-27T05:38:54;89968.38;;;-1.55;100.00
6395;BME280;3230;42.588;23.358;2023-01-27T05:41:21;89964.22;;;-1.56;100.00
6395;BME280;3230;42.588;23.358;2023-01-27T05:43:50;89969.78;;;-1.48;100.00
6395;BME280;3230;42.588;23.358;2023-01-27T05:46:19;89974.97;;;-1.71;100.00
6395;BME280;3230;42.588;23.358;2023-01-27T05:48:46;89978.56;;;-1.72;100.00
6395;BME280;3230;42.588;23.358;2023-01-27T05:51:13;89984.34;;;-1.77;100.00
6395;BME280;3230;42.588;23.358;2023-01-27T05:53:39;89984.03;;;-1.69;100.00
6395;BME280;3230;42.588;23.358;2023-01-27T05:56:05;89989.06;;;-1.74;100.00
6395;BME280;3230;42.588;23.358;2023-01-27T05:58:33;90005.56;;;-1.70;100.00
6395;BME280;3230;42.588;23.358;2023-01-27T06:01:10;89999.31;;;-1.62;100.00
6395;BME280;3230;42.588;23.358;2023-01-27T06:03:36;89993.06;;;-1.66;100.00
6395;BME280;3230;42.588;23.358;2023-01-27T06:06:02;89996.53;;;-1.72;100.00
6395;BME280;3230;42.588;23.358;2023-01-27T06:08:28;89989.50;;;-1.65;100.00
6395;BME280;3230;42.588;23.358;2023-01-27T06:10:54;89986.59;;;-1.69;100.00
6395;BME280;3230;42.588;23.358;2023-01-27T06:13:21;89980.66;;;-1.69;100.00
6395;BME280;3230;42.588;23.358;2023-01-27T06:15:48;89987.69;;;-1.65;100.00
6395;BME280;3230;42.588;23.358;2023-01-27T06:18:14;89987.25;;;-1.62;100.00
6395;BME280;3230;42.588;23.358;2023-01-27T06:20:41;89973.06;;;-1.64;100.00
6395;BME280;3230;42.588;23.358;2023-01-27T06:23:08;89992.78;;;-1.29;100.00
6395;BME280;3230;42.588;23.358;2023-01-27T06:25:36;89989.88;;;-1.33;100.00
6395;BME280;3230;42.588;23.358;2023-01-27T06:28:01;89987.66;;;-1.41;100.00
6395;BME280;3230;42.588;23.358;2023-01-27T06:30:27;89992.66;;;-1.34;100.00
6395;BME280;3230;42.588;23.358;2023-01-27T06:32:52;89988.97;;;-1.26;100.00
6395;BME280;3230;42.588;23.358;2023-01-27T06:35:18;89984.00;;;-1.16;100.00
6395;BME280;3230;42.588;23.358;2023-01-27T06:37:43;89995.09;;;-1.16;100.00
6395;BME280;3230;42.588;23.358;2023-01-27T06:40:09;90000.44;;;-1.17;100.00
6395;BME280;3230;42.588;23.358;2023-01-27T06:42:35;90002.47;;;-0.90;100.00
6395;BME280;3230;42.588;23.358;2023-01-27T06:45:01;90000.91;;;-0.91;100.00
6395;BME280;3230;42.588;23.358;2023-01-27T06:47:26;90005.38;;;-0.87;100.00
6395;BME280;3230;42.588;23.358;2023-01-27T06:49:51;90003.28;;;-0.90;100.00
6395;BME280;3230;42.588;23.358;2023-01-27T06:52:17;90005.38;;;-0.87;100.00
6395;BME280;3230;42.588;23.358;2023-01-27T06:54:42;90014.09;;;-0.88;100.00
6395;BME280;3230;42.588;23.358;2023-01-27T06:57:08;90017.19;;;-0.74;100.00
6395;BME280;3230;42.588;23.358;2023-01-27T06:59:34;90026.38;;;-0.78;100.00
6395;BME280;3230;42.588;23.358;2023-01-27T07:01:59;90029.75;;;-0.89;100.00
6395;BME280;3230;42.588;23.358;2023-01-27T07:04:25;90036.56;;;-0.83;100.00
6395;BME280;3230;42.588;23.358;2023-01-27T07:06:50;90041.59;;;-0.88;100.00
6395;BME280;3230;42.588;23.358;2023-01-27T07:09:16;90037.69;;;-0.79;100.00
6395;BME280;3230;42.588;23.358;2023-01-27T07:11:41;90030.41;;;-0.82;100.00
6395;BME280;3230;42.588;23.358;2023-01-27T07:14:07;90035.53;;;-0.82;100.00
6395;BME280;3230;42.588;23.358;2023-01-27T07:16:32;90021.22;;;-0.78;100.00
6395;BME280;3230;42.588;23.358;2023-01-27T07:18:58;90013.75;;;-0.62;100.00
6395;BME280;3230;42.588;23.358;2023-01-27T07:21:24;89997.81;;;-0.47;100.00
6395;BME280;3230;42.588;23.358;2023-01-27T07:23:50;90004.38;;;-0.40;100.00
6395;BME280;3230;42.588;23.358;2023-01-27T07:26:15;90018.19;;;-0.29;100.00
6395;BME280;3230;42.588;23.358;2023-01-27T07:28:40;90009.53;;;-0.23;100.00
6395;BME280;3230;42.588;23.358;2023-01-27T07:31:06;90006.09;;;-0.28;100.00
6395;BME280;3230;42.588;23.358;2023-01-27T07:33:31;90014.63;;;-0.11;100.00
6395;BME280;3230;42.588;23.358;2023-01-27T07:35:57;90024.50;;;-0.20;100.00
6395;BME280;3230;42.588;23.358;2023-01-27T07:38:22;90026.63;;;-0.17;100.00
6395;BME280;3230;42.588;23.358;2023-01-27T07:40:48;90037.88;;;0.11;100.00
6395;BME280;3230;42.588;23.358;2023-01-27T07:43:13;90024.75;;;-0.04;100.00
6395;BME280;3230;42.588;23.358;2023-01-27T07:45:39;90035.91;;;0.02;100.00
6395;BME280;3230;42.588;23.358;2023-01-27T07:48:06;90037.22;;;-0.13;100.00
6395;BME280;3230;42.588;23.358;2023-01-27T07:50:33;90038.41;;;-0.21;100.00
6395;BME280;3230;42.588;23.358;2023-01-27T07:53:03;90032.78;;;-0.01;100.00
6395;BME280;3230;42.588;23.358;2023-01-27T07:55:29;90036.53;;;0.09;100.00
6395;BME280;3230;42.588;23.358;2023-01-27T07:57:56;90031.22;;;-0.02;100.00
6395;BME280;3230;42.588;23.358;2023-01-27T08:00:22;90030.06;;;0.23;100.00
6395;BME280;3230;42.588;23.358;2023-01-27T08:02:52;90032.00;;;0.33;100.00
6395;BME280;3230;42.588;23.358;2023-01-27T08:05:19;90032.13;;;0.43;100.00
6395;BME280;3230;42.588;23.358;2023-01-27T08:07:45;90028.56;;;0.67;100.00
6395;BME280;3230;42.588;23.358;2023-01-27T08:10:11;90021.59;;;0.28;100.00
6395;BME280;3230;42.588;23.358;2023-01-27T08:12:37;90023.59;;;0.60;100.00
6395;BME280;3230;42.588;23.358;2023-01-27T08:15:03;90026.09;;;0.55;100.00
6395;BME280;3230;42.588;23.358;2023-01-27T08:17:29;90032.19;;;0.48;100.00
6395;BME280;3230;42.588;23.358;2023-01-27T08:19:55;90024.31;;;0.55;100.00
6395;BME280;3230;42.588;23.358;2023-01-27T08:22:20;90024.94;;;0.45;100.00
6395;BME280;3230;42.588;23.358;2023-01-27T08:24:49;90032.31;;;0.76;100.00
6395;BME280;3230;42.588;23.358;2023-01-27T08:27:15;90029.84;;;0.47;100.00
6395;BME280;3230;42.588;23.358;2023-01-27T08:29:42;90036.72;;;0.41;100.00
6395;BME280;3230;42.588;23.358;2023-01-27T08:32:08;90029.94;;;0.35;100.00
6395;BME280;3230;42.588;23.358;2023-01-27T08:34:35;90027.94;;;0.20;100.00
6395;BME280;3230;42.588;23.358;2023-01-27T08:37:01;90040.50;;;0.34;100.00
6395;BME280;3230;42.588;23.358;2023-01-27T08:39:26;90040.88;;;0.25;100.00
6395;BME280;3230;42.588;23.358;2023-01-27T08:41:52;90035.97;;;0.41;100.00
6395;BME280;3230;42.588;23.358;2023-01-27T08:44:18;90033.03;;;0.15;100.00
6395;BME280;3230;42.588;23.358;2023-01-27T08:46:43;90041.19;;;0.29;100.00
6395;BME280;3230;42.588;23.358;2023-01-27T08:49:09;90037.06;;;0.28;100.00
6395;BME280;3230;42.588;23.358;2023-01-27T08:51:35;90035.59;;;-0.02;100.00
6395;BME280;3230;42.588;23.358;2023-01-27T08:54:00;90039.88;;;-0.08;100.00
6395;BME280;3230;42.588;23.358;2023-01-27T08:56:26;90036.94;;;0.01;100.00
6395;BME280;3230;42.588;23.358;2023-01-27T08:58:51;90032.22;;;-0.03;100.00
6395;BME280;3230;42.588;23.358;2023-01-27T09:01:18;90023.97;;;-0.05;100.00
6395;BME280;3230;42.588;23.358;2023-01-27T09:03:44;90032.72;;;-0.06;100.00
6395;BME280;3230;42.588;23.358;2023-01-27T09:06:11;90028.44;;;0.00;100.00
6395;BME280;3230;42.588;23.358;2023-01-27T09:08:37;90024.34;;;0.21;100.00
6395;BME280;3230;42.588;23.358;2023-01-27T09:11:14;90030.91;;;0.29;100.00
6395;BME280;3230;42.588;23.358;2023-01-27T09:13:40;90025.03;;;0.34;100.00
6395;BME280;3230;42.588;23.358;2023-01-27T09:16:06;90026.81;;;0.50;100.00
6395;BME280;3230;42.588;23.358;2023-01-27T09:18:33;90025.66;;;0.41;100.00
6395;BME280;3230;42.588;23.358;2023-01-27T09:21:04;90029.53;;;0.60;100.00
6395;BME280;3230;42.588;23.358;2023-01-27T09:23:31;90026.69;;;0.62;100.00
6395;BME280;3230;42.588;23.358;2023-01-27T09:25:57;90030.09;;;0.45;100.00
6395;BME280;3230;42.588;23.358;2023-01-27T09:28:22;90029.25;;;0.40;100.00
6395;BME280;3230;42.588;23.358;2023-01-27T09:30:48;90027.84;;;0.49;100.00
6395;BME280;3230;42.588;23.358;2023-01-27T09:33:14;90022.53;;;0.39;100.00
6395;BME280;3230;42.588;23.358;2023-01-27T09:35:55;90020.03;;;0.44;100.00
6395;BME280;3230;42.588;23.358;2023-01-27T09:38:23;90011.75;;;0.42;100.00
6395;BME280;3230;42.588;23.358;2023-01-27T09:41:26;90012.63;;;0.30;100.00
6395;BME280;3230;42.588;23.358;2023-01-27T10:05:12;89984.66;;;1.06;100.00
6395;BME280;3230;42.588;23.358;2023-01-27T10:10:37;89980.34;;;1.11;100.00
6395;BME280;3230;42.588;23.358;2023-01-27T10:21:41;89974.88;;;1.08;100.00
6395;BME280;3230;42.588;23.358;2023-01-27T10:26:59;89974.53;;;0.99;100.00
6395;BME280;3230;42.588;23.358;2023-01-27T10:29:39;89967.06;;;0.98;100.00
6395;BME280;3230;42.588;23.358;2023-01-27T10:32:13;89971.19;;;0.76;100.00
6395;BME280;3230;42.588;23.358;2023-01-27T10:35:27;89978.50;;;0.62;100.00
6395;BME280;3230;42.588;23.358;2023-01-27T10:45:29;89964.16;;;0.27;100.00
6395;BME280;3230;42.588;23.358;2023-01-27T10:48:21;89974.31;;;0.56;100.00
6395;BME280;3230;42.588;23.358;2023-01-27T10:50:58;89963.84;;;0.24;100.00
6395;BME280;3230;42.588;23.358;2023-01-27T10:56:17;89963.81;;;0.02;100.00
6395;BME280;3230;42.588;23.358;2023-01-27T11:01:35;89969.34;;;0.32;100.00
6395;BME280;3230;42.588;23.358;2023-01-27T11:04:13;89962.81;;;0.25;100.00
6395;BME280;3230;42.588;23.358;2023-01-27T11:06:41;89959.41;;;0.41;100.00
6395;BME280;3230;42.588;23.358;2023-01-27T11:09:15;89957.09;;;0.40;100.00
6395;BME280;3230;42.588;23.358;2023-01-27T11:11:43;89950.84;;;0.36;100.00
6395;BME280;3230;42.588;23.358;2023-01-27T11:14:15;89944.13;;;0.35;100.00
6395;BME280;3230;42.588;23.358;2023-01-27T11:16:45;89950.31;;;0.56;100.00
6395;BME280;3230;42.588;23.358;2023-01-27T11:21:56;89956.38;;;0.67;100.00
6395;BME280;3230;42.588;23.358;2023-01-27T11:24:27;89947.13;;;0.93;100.00
6395;BME280;3230;42.588;23.358;2023-01-27T11:27:02;89942.53;;;0.73;100.00
6395;BME280;3230;42.588;23.358;2023-01-27T11:29:48;89946.78;;;0.84;100.00
6395;BME280;3230;42.588;23.358;2023-01-27T11:32:37;89941.56;;;1.01;100.00
6395;BME280;3230;42.588;23.358;2023-01-27T11:35:13;89947.44;;;0.97;100.00
6395;BME280;3230;42.588;23.358;2023-01-27T11:37:41;89941.78;;;1.00;100.00
6395;BME280;3230;42.588;23.358;2023-01-27T11:40:27;89946.84;;;0.89;100.00
6395;BME280;3230;42.588;23.358;2023-01-27T11:42:55;89946.88;;;0.94;100.00
6395;BME280;3230;42.588;23.358;2023-01-27T11:45:23;89935.81;;;0.94;100.00
6395;BME280;3230;42.588;23.358;2023-01-27T11:47:52;89940.50;;;1.02;100.00
6395;BME280;3230;42.588;23.358;2023-01-27T11:50:20;89946.41;;;0.98;100.00
6395;BME280;3230;42.588;23.358;2023-01-27T11:52:51;89943.38;;;1.06;100.00
6395;BME280;3230;42.588;23.358;2023-01-27T11:55:23;89916.00;;;0.77;100.00
6395;BME280;3230;42.588;23.358;2023-01-27T11:57:55;89930.81;;;0.87;100.00
6395;BME280;3230;42.588;23.358;2023-01-27T12:00:25;89931.22;;;1.01;100.00
6395;BME280;3230;42.588;23.358;2023-01-27T12:03:19;89935.22;;;1.14;100.00
6395;BME280;3230;42.588;23.358;2023-01-27T12:06:00;89941.34;;;1.08;100.00
6395;BME280;3230;42.588;23.358;2023-01-27T12:08:46;89946.63;;;1.18;100.00
6395;BME280;3230;42.588;23.358;2023-01-27T12:13:55;89936.56;;;1.49;100.00
6395;BME280;3230;42.588;23.358;2023-01-27T12:16:41;89941.78;;;1.59;100.00
6395;BME280;3230;42.588;23.358;2023-01-27T12:19:22;89931.16;;;1.83;100.00
6395;BME280;3230;42.588;23.358;2023-01-27T12:21:51;89930.91;;;1.90;100.00
6395;BME280;3230;42.588;23.358;2023-01-27T12:24:27;89923.72;;;1.59;100.00
6395;BME280;3230;42.588;23.358;2023-01-27T12:26:53;89941.84;;;1.65;100.00
6395;BME280;3230;42.588;23.358;2023-01-27T12:29:39;89931.41;;;1.49;100.00
6395;BME280;3230;42.588;23.358;2023-01-27T12:32:38;89931.84;;;1.41;100.00
6395;BME280;3230;42.588;23.358;2023-01-27T12:35:05;89944.28;;;1.44;100.00
6395;BME280;3230;42.588;23.358;2023-01-27T12:37:36;89939.69;;;1.51;100.00
6395;BME280;3230;42.588;23.358;2023-01-27T12:40:05;89942.88;;;1.64;100.00
6395;BME280;3230;42.588;23.358;2023-01-27T12:45:17;89944.72;;;1.36;100.00
6395;BME280;3230;42.588;23.358;2023-01-27T12:48:28;89928.69;;;1.34;100.00
6395;BME280;3230;42.588;23.358;2023-01-27T12:53:16;89927.38;;;1.64;100.00
6395;BME280;3230;42.588;23.358;2023-01-27T12:55:45;89932.22;;;1.55;100.00
6395;BME280;3230;42.588;23.358;2023-01-27T12:58:41;89928.81;;;1.49;100.00
6395;BME280;3230;42.588;23.358;2023-01-27T13:03:48;89928.78;;;1.44;100.00
6395;BME280;3230;42.588;23.358;2023-01-27T13:06:16;89921.59;;;1.19;100.00
6395;BME280;3230;42.588;23.358;2023-01-27T13:08:43;89926.16;;;1.11;100.00
6395;BME280;3230;42.588;23.358;2023-01-27T13:11:10;89925.41;;;1.11;100.00
6395;BME280;3230;42.588;23.358;2023-01-27T13:13:36;89913.78;;;0.86;100.00
6395;BME280;3230;42.588;23.358;2023-01-27T13:16:14;89922.53;;;1.07;100.00
6395;BME280;3230;42.588;23.358;2023-01-27T13:18:41;89931.75;;;0.76;100.00
6395;BME280;3230;42.588;23.358;2023-01-27T13:21:17;89920.69;;;0.36;100.00
6395;BME280;3230;42.588;23.358;2023-01-27T13:23:45;89938.28;;;0.39;100.00
6395;BME280;3230;42.588;23.358;2023-01-27T13:26:16;89926.44;;;0.21;100.00
6395;BME280;3230;42.588;23.358;2023-01-27T13:29:01;89927.38;;;0.32;100.00
6395;BME280;3230;42.588;23.358;2023-01-27T13:31:40;89931.56;;;0.38;100.00
6395;BME280;3230;42.588;23.358;2023-01-27T13:39:45;89929.94;;;0.32;100.00
6395;BME280;3230;42.588;23.358;2023-01-27T13:42:35;89938.13;;;0.51;100.00
6395;BME280;3230;42.588;23.358;2023-01-27T13:45:24;89930.19;;;0.53;100.00
6395;BME280;3230;42.588;23.358;2023-01-27T13:47:57;89933.66;;;0.63;100.00
6395;BME280;3230;42.588;23.358;2023-01-27T13:50:34;89930.25;;;0.58;100.00
6395;BME280;3230;42.588;23.358;2023-01-27T13:53:02;89926.91;;;0.57;100.00
6395;BME280;3230;42.588;23.358;2023-01-27T13:58:59;89939.13;;;0.67;100.00
6395;BME280;3230;42.588;23.358;2023-01-27T14:01:53;89942.16;;;0.42;100.00
6395;BME280;3230;42.588;23.358;2023-01-27T14:12:51;89946.50;;;-0.20;100.00
6395;BME280;3230;42.588;23.358;2023-01-27T14:20:48;89949.38;;;-0.34;100.00
6395;BME280;3230;42.588;23.358;2023-01-27T14:38:31;89957.97;;;-0.62;100.00
6395;BME280;3230;42.588;23.358;2023-01-27T14:40:56;89952.22;;;-0.81;100.00
6395;BME280;3230;42.588;23.358;2023-01-27T14:43:51;89968.19;;;-0.96;100.00
6395;BME280;3230;42.588;23.358;2023-01-27T14:46:49;89965.00;;;-1.15;100.00
6395;BME280;3230;42.588;23.358;2023-01-27T14:52:03;89970.56;;;-1.06;100.00
6395;BME280;3230;42.588;23.358;2023-01-27T14:55:13;89965.44;;;-1.18;100.00
6395;BME280;3230;42.588;23.358;2023-01-27T15:14:39;89983.63;;;-1.37;100.00
6395;BME280;3230;42.588;23.358;2023-01-27T15:27:32;89992.91;;;-0.95;100.00
6395;BME280;3230;42.588;23.358;2023-01-27T15:30:25;89990.44;;;-1.02;100.00
6395;BME280;3230;42.588;23.358;2023-01-27T15:32:51;89992.41;;;-0.92;100.00
6395;BME280;3230;42.588;23.358;2023-01-27T15:35:34;90007.28;;;-0.94;100.00